Time;durP1;ratioP1;P1;durP2;ratioP2;P2;SDS_P1;SDS_P2;PMS_P1;PMS_P2;Temp;Humidity;BMP_temperature;BMP_pressure;BME280_temperature;BME280_humidity;BME280_pressure;Samples;Min_cycle;Max_cycle;Signal;HPM_P1;HPM_P2
2022/08/09 00:00:36;;;;;;;4.70;3.17;;;;;;;20.46;71.59;93310.72;5089960;28;20048;-75
2022/08/09 00:03:03;;;;;;;5.10;3.67;;;;;;;20.39;70.96;93306.59;5089595;28;20047;-76
2022/08/09 00:05:30;;;;;;;5.97;3.30;;;;;;;20.35;71.60;93310.00;5089533;28;20040;-76
2022/08/09 00:07:57;;;;;;;7.72;3.53;;;;;;;20.27;71.92;93311.34;5089348;28;20043;-76
2022/08/09 00:10:23;;;;;;;5.90;3.38;;;;;;;20.27;72.63;93316.56;5089731;28;20052;-76
2022/08/09 00:12:50;;;;;;;4.43;3.17;;;;;;;20.10;73.58;93304.63;5089523;28;20550;-77
2022/08/09 00:15:18;;;;;;;5.28;3.83;;;;;;;20.06;73.58;93308.81;5088917;28;20458;-76
2022/08/09 00:17:45;;;;;;;8.68;3.50;;;;;;;20.05;73.92;93319.50;5089511;28;20094;-75
2022/08/09 00:20:12;;;;;;;5.43;3.58;;;;;;;19.93;74.70;93322.38;5088618;28;20504;-75
2022/08/09 00:22:39;;;;;;;6.15;3.88;;;;;;;19.87;75.49;93324.22;5089039;28;20492;-75
2022/08/09 00:25:06;;;;;;;5.88;3.47;;;;;;;19.82;75.89;93322.41;5093119;28;20055;-77
2022/08/09 00:27:35;;;;;;;5.50;3.60;;;;;;;19.69;75.99;93315.13;5102335;28;20048;-76
2022/08/09 00:30:02;;;;;;;7.03;3.72;;;;;;;19.64;76.37;93328.97;5089900;28;20066;-76
2022/08/09 00:32:31;;;;;;;6.15;4.05;;;;;;;19.60;77.13;93328.72;5088822;28;20036;-76
2022/08/09 00:35:02;;;;;;;4.82;3.60;;;;;;;19.51;77.68;93322.47;5089417;28;20451;-76
2022/08/09 00:37:31;;;;;;;5.10;3.65;;;;;;;19.49;78.46;93319.34;5090124;28;20056;-76
2022/08/09 00:39:59;;;;;;;4.53;3.70;;;;;;;19.46;77.71;93323.25;5089967;28;20072;-76
2022/08/09 00:42:27;;;;;;;4.93;3.60;;;;;;;19.47;78.39;93318.81;5089503;28;20048;-77
2022/08/09 00:44:55;;;;;;;4.47;3.47;;;;;;;19.45;77.67;93319.06;5104665;28;20051;-76
2022/08/09 00:47:22;;;;;;;5.63;3.53;;;;;;;19.47;77.54;93308.38;5090649;28;20484;-76
2022/08/09 00:49:50;;;;;;;5.88;3.85;;;;;;;19.43;77.59;93312.56;5091435;28;20043;-76
2022/08/09 00:52:17;;;;;;;4.55;3.38;;;;;;;19.37;78.75;93319.59;5101651;28;20116;-76
2022/08/09 00:57:29;;;;;;;5.00;3.53;;;;;;;19.34;77.97;93317.50;5094876;28;20560;-76
2022/08/09 00:59:56;;;;;;;5.13;4.00;;;;;;;19.35;78.27;93316.50;5089007;28;20534;-76
2022/08/09 01:02:29;;;;;;;5.60;3.72;;;;;;;19.33;78.56;93315.97;5089368;28;20084;-76
2022/08/09 01:05:04;;;;;;;6.30;4.63;;;;;;;19.26;78.39;93316.25;5088996;28;20142;-76
2022/08/09 01:07:38;;;;;;;5.18;3.78;;;;;;;19.25;79.01;93311.28;5089332;28;20052;-77
2022/08/09 01:10:15;;;;;;;4.75;3.60;;;;;;;19.25;78.38;93317.25;5089407;28;20048;-76
2022/08/09 01:12:46;;;;;;;7.45;4.07;;;;;;;19.15;79.01;93305.03;5090318;28;20105;-80
2022/08/09 01:15:16;;;;;;;6.10;4.00;;;;;;;19.26;79.25;93312.84;5093736;28;20101;-81
2022/08/09 01:17:50;;;;;;;6.28;3.72;;;;;;;19.21;78.83;93308.44;5090067;28;20486;-81
2022/08/09 01:20:28;;;;;;;5.55;3.80;;;;;;;19.17;79.23;93296.97;5093781;28;20317;-77
2022/08/09 01:23:08;;;;;;;5.55;4.03;;;;;;;19.29;79.57;93317.50;5095860;28;20503;-78
2022/08/09 01:25:51;;;;;;;5.85;3.67;;;;;;;19.30;79.00;93312.06;5090107;28;20036;-81
2022/08/09 01:28:22;;;;;;;5.68;3.95;;;;;;;19.23;79.09;93304.53;5093254;28;20482;-81
2022/08/09 01:30:51;;;;;;;5.90;3.70;;;;;;;19.17;79.15;93291.75;5092730;28;20093;-81
2022/08/09 01:33:21;;;;;;;7.72;3.70;;;;;;;19.19;79.83;93306.09;5093407;28;20120;-76
2022/08/09 01:35:53;;;;;;;6.63;4.15;;;;;;;19.15;79.80;93299.81;5092438;28;20131;-76
2022/08/09 01:38:24;;;;;;;5.90;4.03;;;;;;;19.09;80.14;93293.06;5101994;28;20445;-76
2022/08/09 01:40:55;;;;;;;4.68;3.53;;;;;;;19.09;79.93;93296.44;5095531;28;20116;-82
2022/08/09 01:43:23;;;;;;;5.10;4.05;;;;;;;19.02;80.23;93288.06;5100912;28;20488;-83
2022/08/09 01:45:53;;;;;;;8.05;3.45;;;;;;;19.07;80.62;93302.97;5102261;28;20507;-80
2022/08/09 01:48:21;;;;;;;6.25;3.72;;;;;;;19.04;80.76;93293.84;5103124;28;20044;-81
2022/08/09 01:50:50;;;;;;;7.07;4.05;;;;;;;19.03;80.79;93296.69;5095887;28;20047;-81
2022/08/09 01:53:22;;;;;;;7.13;4.20;;;;;;;19.06;80.91;93294.34;5096695;28;20052;-81
2022/08/09 01:55:50;;;;;;;4.70;3.42;;;;;;;19.05;81.41;93292.00;5110325;28;20043;-79
2022/08/09 01:58:17;;;;;;;6.93;4.28;;;;;;;19.01;81.27;93291.72;5112685;28;20466;-79
2022/08/09 02:00:46;;;;;;;6.45;4.00;;;;;;;19.00;82.30;93290.16;5112283;28;20471;-78
2022/08/09 02:03:15;;;;;;;6.72;3.58;;;;;;;18.87;82.70;93280.25;5112622;28;20132;-79
2022/08/09 02:05:44;;;;;;;6.35;4.43;;;;;;;18.89;84.08;93280.78;5111980;28;20109;-77
2022/08/09 02:08:16;;;;;;;5.63;3.90;;;;;;;18.81;84.62;93279.47;5112014;28;20048;-78
2022/08/09 02:10:46;;;;;;;7.10;4.60;;;;;;;18.83;83.49;93280.78;5112339;28;20100;-78
2022/08/09 02:13:16;;;;;;;6.35;4.43;;;;;;;18.79;85.09;93287.53;5111844;28;20054;-79
2022/08/09 02:15:48;;;;;;;6.32;4.05;;;;;;;18.89;84.49;93281.56;5112400;28;20047;-79
2022/08/09 02:18:19;;;;;;;5.55;4.25;;;;;;;18.95;84.36;93279.75;5111712;28;20411;-78
2022/08/09 02:20:52;;;;;;;8.32;3.85;;;;;;;18.98;83.55;93273.25;5112181;28;20039;-79
2022/08/09 02:23:25;;;;;;;5.43;4.22;;;;;;;18.94;83.80;93273.75;5112125;28;20048;-78
2022/08/09 02:25:56;;;;;;;7.55;4.05;;;;;;;19.05;84.00;93276.38;5112225;28;20100;-78
2022/08/09 02:28:27;;;;;;;8.85;4.00;;;;;;;19.07;82.74;93269.88;5112239;28;20055;-79
2022/08/09 02:31:01;;;;;;;5.80;4.35;;;;;;;18.89;84.51;93265.94;5112221;28;20093;-79
2022/08/09 02:33:33;;;;;;;5.07;3.78;;;;;;;18.75;87.02;93290.94;5112154;28;20487;-78
2022/08/09 02:36:02;;;;;;;5.30;3.92;;;;;;;18.85;85.66;93290.94;5112186;28;20454;-78
2022/08/09 02:38:34;;;;;;;5.93;4.43;;;;;;;18.28;91.88;93306.41;5110807;28;20540;-78
2022/08/09 02:41:07;;;;;;;5.85;4.50;;;;;;;18.56;88.97;93301.81;5111837;28;20088;-78
2022/08/09 02:43:39;;;;;;;6.13;4.22;;;;;;;18.63;88.80;93288.56;5111537;28;20413;-78
2022/08/09 02:46:10;;;;;;;5.18;4.00;;;;;;;18.79;87.07;93300.56;5111473;28;20066;-78
2022/08/09 02:48:39;;;;;;;5.80;4.40;;;;;;;18.90;86.41;93303.16;5111905;28;20058;-78
2022/08/09 02:51:10;;;;;;;5.20;4.03;;;;;;;18.81;85.03;93280.28;5111531;28;20444;-78
2022/08/09 02:53:39;;;;;;;6.47;4.28;;;;;;;18.96;84.52;93279.50;5101677;28;20085;-78
2022/08/09 02:56:09;;;;;;;7.68;4.40;;;;;;;19.12;84.95;93302.94;5091054;28;20040;-78
2022/08/09 02:58:36;;;;;;;11.85;5.32;;;;;;;19.06;85.32;93289.16;5090729;28;20535;-78
2022/08/09 03:01:05;;;;;;;11.43;4.32;;;;;;;19.19;85.13;93297.47;5091117;28;20051;-78
2022/08/09 03:03:35;;;;;;;9.10;5.05;;;;;;;19.18;85.13;93309.72;5109188;28;20100;-78
2022/08/09 03:06:05;;;;;;;9.27;4.35;;;;;;;19.29;83.96;93309.69;5111095;28;20491;-79
2022/08/09 03:08:33;;;;;;;6.15;3.88;;;;;;;19.25;86.12;93308.69;5111438;28;20131;-79
2022/08/09 03:11:01;;;;;;;10.52;4.10;;;;;;;19.21;86.06;93301.38;5110972;28;20039;-78
2022/08/09 03:13:29;;;;;;;6.68;3.90;;;;;;;19.23;85.08;93293.31;5091023;28;20389;-78
2022/08/09 03:15:56;;;;;;;7.47;4.22;;;;;;;19.19;87.98;93311.28;5090590;28;20047;-79
2022/08/09 03:18:24;;;;;;;8.10;3.80;;;;;;;19.08;85.42;93292.25;5090379;28;20080;-84
2022/08/09 03:20:52;;;;;;;6.72;4.38;;;;;;;19.22;85.08;93302.94;5090612;28;20044;-82
2022/08/09 03:23:20;;;;;;;7.35;4.18;;;;;;;19.30;85.09;93313.91;5090700;28;20044;-83
2022/08/09 03:25:49;;;;;;;6.88;3.83;;;;;;;19.36;84.29;93311.00;5090417;28;20461;-82
2022/08/09 03:28:17;;;;;;;6.82;4.78;;;;;;;19.40;84.25;93313.88;5090345;28;20044;-82
2022/08/09 03:30:45;;;;;;;7.32;3.65;;;;;;;19.42;84.30;93306.59;5090337;28;20093;-82
2022/08/09 03:33:14;;;;;;;6.93;5.07;;;;;;;19.45;84.66;93297.47;5090170;28;20521;-82
2022/08/09 03:35:41;;;;;;;8.68;4.72;;;;;;;19.54;84.25;93314.13;5090484;28;20142;-77
2022/08/09 03:38:09;;;;;;;7.30;4.10;;;;;;;19.56;83.96;93322.47;5090349;28;20044;-78
2022/08/09 03:40:36;;;;;;;6.90;4.75;;;;;;;19.53;83.29;93309.94;5089823;28;20044;-78
2022/08/09 03:43:03;;;;;;;8.18;3.92;;;;;;;19.64;83.65;93321.16;5091230;28;20055;-78
2022/08/09 03:45:30;;;;;;;9.10;4.63;;;;;;;19.56;83.17;93304.22;5095196;28;20076;-78
2022/08/09 03:47:56;;;;;;;8.50;4.72;;;;;;;19.67;83.73;93319.84;5089969;28;20044;-77
2022/08/09 03:50:26;;;;;;;7.80;3.90;;;;;;;19.67;83.74;93331.03;5089768;28;20059;-78
2022/08/09 03:52:54;;;;;;;8.02;4.20;;;;;;;19.46;84.32;93283.38;5089688;28;20040;-78
2022/08/09 03:55:22;;;;;;;9.23;4.75;;;;;;;19.73;83.55;93329.97;5089950;28;20093;-78
2022/08/09 03:57:50;;;;;;;8.85;4.75;;;;;;;19.77;83.57;93328.41;5089829;28;20036;-77
2022/08/09 04:00:17;;;;;;;7.80;4.47;;;;;;;19.81;83.77;93331.25;5089881;28;20138;-78
2022/08/09 04:02:44;;;;;;;6.05;4.07;;;;;;;19.85;83.18;93336.72;5089893;28;20062;-78
2022/08/09 04:05:12;;;;;;;6.00;4.68;;;;;;;19.87;84.82;93332.03;5089523;28;20579;-78
2022/08/09 04:07:39;;;;;;;7.70;4.80;;;;;;;19.91;84.44;93338.31;5089466;28;20051;-78
2022/08/09 04:10:07;;;;;;;8.85;5.20;;;;;;;19.93;85.76;93338.00;5089727;28;20095;-77
2022/08/09 04:12:47;;;;;;;7.72;5.45;;;;;;;19.96;83.77;93335.72;5089341;28;20040;-78
2022/08/09 04:15:14;;;;;;;10.10;5.75;;;;;;;19.79;84.26;93315.13;5107948;28;20112;-79
2022/08/09 04:17:42;;;;;;;10.43;5.78;;;;;;;19.97;83.54;93337.25;5110104;28;20048;-78
2022/08/09 04:20:11;;;;;;;8.30;5.25;;;;;;;19.98;85.14;93327.59;5095329;28;20044;-78
2022/08/09 04:22:38;;;;;;;13.88;5.88;;;;;;;20.03;84.34;93323.16;5089889;28;20112;-78
2022/08/09 04:25:07;;;;;;;9.05;5.22;;;;;;;20.10;83.77;93330.72;5089418;28;20048;-78
2022/08/09 04:27:34;;;;;;;8.13;4.57;;;;;;;20.14;83.19;93328.34;5089454;28;20461;-78
2022/08/09 04:30:03;;;;;;;8.65;5.25;;;;;;;20.24;85.60;93330.13;5089443;28;20170;-77
2022/08/09 04:32:29;;;;;;;12.93;5.18;;;;;;;20.28;84.31;93328.56;5107167;28;20039;-78
2022/08/09 04:34:56;;;;;;;9.73;5.82;;;;;;;20.34;83.47;93332.69;5109799;28;20055;-78
2022/08/09 04:37:23;;;;;;;9.10;5.00;;;;;;;20.21;85.32;93331.44;5109540;28;20523;-78
2022/08/09 04:39:50;;;;;;;12.77;5.45;;;;;;;20.35;84.54;93336.06;5109103;28;20057;-78
2022/08/09 04:42:17;;;;;;;9.32;5.20;;;;;;;20.37;83.58;93337.38;5109680;28;20522;-78
2022/08/09 04:44:44;;;;;;;11.15;6.60;;;;;;;20.39;83.81;93343.13;5109433;28;20066;-79
2022/08/09 04:47:12;;;;;;;8.75;5.78;;;;;;;20.45;83.40;93338.63;5109592;28;20044;-79
2022/08/09 04:49:38;;;;;;;10.55;6.18;;;;;;;20.46;82.97;93344.66;5109501;28;20077;-79
2022/08/09 04:52:06;;;;;;;8.45;5.28;;;;;;;20.40;82.60;93347.28;5109600;28;20074;-79
2022/08/09 04:54:33;;;;;;;10.45;7.60;;;;;;;20.43;82.63;93349.34;5109717;28;20398;-81
2022/08/09 04:57:00;;;;;;;11.80;7.13;;;;;;;20.42;83.71;93347.78;5109663;28;20039;-81
2022/08/09 04:59:27;;;;;;;12.20;6.53;;;;;;;20.48;84.02;93356.38;5109455;28;20047;-82
2022/08/09 05:01:53;;;;;;;10.98;5.45;;;;;;;20.51;83.21;93344.63;5108870;28;20055;-82
2022/08/09 05:04:21;;;;;;;14.55;6.35;;;;;;;20.46;81.37;93340.19;5109297;28;20047;-82
2022/08/09 05:06:48;;;;;;;14.00;7.28;;;;;;;20.49;81.68;93337.06;5089044;28;20043;-82
2022/08/09 05:09:15;;;;;;;11.93;6.22;;;;;;;20.67;81.13;93351.34;5088818;28;20082;-80
2022/08/09 05:11:42;;;;;;;12.00;6.13;;;;;;;20.77;79.97;93354.91;5089031;28;20052;-78
2022/08/09 05:14:09;;;;;;;9.18;5.57;;;;;;;20.82;80.28;93360.13;5089009;28;20588;-78
2022/08/09 05:16:36;;;;;;;11.13;5.90;;;;;;;20.91;79.69;93355.13;5088698;28;20553;-80
2022/08/09 05:19:03;;;;;;;12.38;5.80;;;;;;;20.98;79.38;93360.06;5088525;28;21000;-80
2022/08/09 05:21:31;;;;;;;10.95;5.97;;;;;;;21.05;78.17;93361.31;5089742;28;20051;-80
2022/08/09 05:23:58;;;;;;;15.57;6.68;;;;;;;21.10;80.45;93360.50;5089430;28;20381;-80
2022/08/09 05:26:25;;;;;;;11.05;5.93;;;;;;;21.16;78.48;93353.41;5089007;28;20507;-82
2022/08/09 05:28:52;;;;;;;11.63;5.88;;;;;;;21.17;78.07;93349.75;5089203;28;20089;-81
2022/08/09 05:31:19;;;;;;;11.23;6.50;;;;;;;21.24;78.73;93365.88;5089161;28;20044;-82
2022/08/09 05:33:51;;;;;;;9.88;5.20;;;;;;;21.26;79.00;93361.19;5089405;28;20668;-81
2022/08/09 05:36:17;;;;;;;9.65;5.13;;;;;;;21.16;76.92;93340.34;5089442;28;20055;-82
2022/08/09 05:38:46;;;;;;;15.32;7.20;;;;;;;21.37;76.68;93364.50;5089187;28;20476;-80
2022/08/09 05:41:12;;;;;;;11.52;6.35;;;;;;;21.43;75.38;93367.84;5089097;28;20062;-81
2022/08/09 05:43:39;;;;;;;11.25;6.38;;;;;;;21.48;75.10;93370.44;5095114;28;20581;-79
2022/08/09 05:46:06;;;;;;;9.55;5.60;;;;;;;21.47;75.86;93361.00;5097260;28;20102;-77
2022/08/09 05:48:33;;;;;;;13.80;6.88;;;;;;;21.38;77.03;93362.66;5088611;28;20064;-77
2022/08/09 05:51:00;;;;;;;12.80;6.22;;;;;;;21.39;75.76;93361.59;5089134;28;20051;-78
2022/08/09 05:53:27;;;;;;;10.40;6.05;;;;;;;21.48;75.61;93368.56;5088689;28;20048;-78
2022/08/09 05:55:55;;;;;;;8.98;5.32;;;;;;;21.59;74.88;93364.06;5088760;28;20048;-77
2022/08/09 05:58:22;;;;;;;10.65;6.22;;;;;;;21.72;74.40;93359.28;5088536;28;20530;-76
2022/08/09 06:00:49;;;;;;;12.23;6.35;;;;;;;21.82;73.39;93361.78;5088422;28;20094;-76
2022/08/09 06:03:15;;;;;;;11.45;6.05;;;;;;;21.94;73.57;93366.63;5088733;28;20052;-76
2022/08/09 06:05:42;;;;;;;10.60;6.10;;;;;;;22.12;73.83;93369.63;5088537;28;20044;-76
2022/08/09 06:08:09;;;;;;;13.40;6.38;;;;;;;22.23;71.88;93360.59;5088479;28;20389;-77
2022/08/09 06:10:38;;;;;;;14.57;6.40;;;;;;;22.46;72.48;93354.81;5088214;28;20089;-77
2022/08/09 06:13:08;;;;;;;12.70;5.93;;;;;;;22.78;70.17;93356.78;5090593;28;20075;-77
2022/08/09 06:15:34;;;;;;;13.23;6.25;;;;;;;22.96;68.79;93357.09;5092235;28;20053;-77
2022/08/09 06:18:02;;;;;;;13.68;6.35;;;;;;;23.21;68.50;93350.72;5092219;28;20044;-77
2022/08/09 06:20:29;;;;;;;14.75;6.22;;;;;;;23.40;66.89;93359.63;5092418;28;20048;-77
2022/08/09 06:22:55;;;;;;;10.98;6.07;;;;;;;23.33;67.14;93362.63;5091706;28;20058;-77
2022/08/09 06:25:22;;;;;;;11.77;6.97;;;;;;;23.33;68.63;93360.00;5091772;28;20496;-77
2022/08/09 06:27:49;;;;;;;13.60;5.72;;;;;;;23.59;67.56;93362.97;5092477;28;20454;-78
2022/08/09 06:30:17;;;;;;;8.15;5.30;;;;;;;23.81;67.76;93356.31;5092114;28;20048;-77
2022/08/09 06:32:44;;;;;;;11.75;6.78;;;;;;;23.93;65.43;93363.72;5092082;28;20639;-77
2022/08/09 06:35:12;;;;;;;20.98;6.43;;;;;;;24.34;64.39;93356.19;5091699;28;20056;-76
2022/08/09 06:37:38;;;;;;;9.45;6.78;;;;;;;24.76;61.10;93349.03;5091543;28;20541;-77
2022/08/09 06:40:06;;;;;;;10.63;6.30;;;;;;;24.91;59.83;93349.81;5091850;28;20044;-76
2022/08/09 06:42:33;;;;;;;10.30;6.45;;;;;;;25.30;58.64;93353.66;5091227;28;20055;-76
2022/08/09 06:45:00;;;;;;;14.43;7.13;;;;;;;25.38;55.90;93348.75;5105909;28;20113;-76
2022/08/09 06:47:28;;;;;;;11.63;6.53;;;;;;;25.40;56.07;93334.22;5091670;28;20044;-76
2022/08/09 06:49:55;;;;;;;9.80;7.10;;;;;;;25.64;52.09;93356.81;5091332;28;20044;-76
2022/08/09 06:52:22;;;;;;;8.38;5.45;;;;;;;25.42;54.24;93342.59;5091785;28;20052;-76
2022/08/09 06:54:49;;;;;;;10.85;6.80;;;;;;;25.81;53.62;93340.34;5091579;28;20040;-77
2022/08/09 06:57:15;;;;;;;8.85;6.10;;;;;;;26.01;51.26;93349.56;5091274;28;21027;-76
2022/08/09 06:59:42;;;;;;;9.90;6.43;;;;;;;26.18;51.71;93337.56;5091076;28;20462;-76
2022/08/09 07:02:09;;;;;;;14.15;6.68;;;;;;;25.97;51.16;93347.88;5091269;28;20109;-76
2022/08/09 07:04:37;;;;;;;9.65;5.93;;;;;;;26.26;52.24;93346.59;5090868;28;20488;-76
2022/08/09 07:07:04;;;;;;;9.85;5.95;;;;;;;26.23;52.34;93345.34;5090901;28;20141;-76
2022/08/09 07:09:31;;;;;;;8.25;5.22;;;;;;;26.52;52.29;93354.56;5091326;28;20105;-76
2022/08/09 07:11:58;;;;;;;8.88;5.38;;;;;;;26.53;46.85;93350.06;5091095;28;20055;-76
2022/08/09 07:14:25;;;;;;;8.13;4.90;;;;;;;26.47;45.37;93357.34;5091172;28;20135;-76
2022/08/09 07:16:52;;;;;;;5.70;4.22;;;;;;;26.14;46.25;93358.47;5091018;28;20219;-77
2022/08/09 07:19:18;;;;;;;6.50;4.60;;;;;;;26.04;47.46;93350.03;5090631;28;20485;-77
2022/08/09 07:21:47;;;;;;;8.88;5.15;;;;;;;26.40;46.93;93354.38;5091111;28;20131;-76
2022/08/09 07:24:14;;;;;;;8.75;4.47;;;;;;;26.48;45.88;93358.88;5089601;28;20090;-78
2022/08/09 07:26:41;;;;;;;11.15;4.65;;;;;;;26.23;46.48;93357.69;5088370;28;20055;-79
2022/08/09 07:29:08;;;;;;;6.72;4.35;;;;;;;25.89;48.12;93355.41;5090137;28;20043;-78
2022/08/09 07:31:35;;;;;;;7.57;4.60;;;;;;;26.15;48.30;93356.63;5090166;28;20072;-78
2022/08/09 07:34:02;;;;;;;6.03;4.05;;;;;;;25.74;47.23;93363.69;5090070;28;20434;-78
2022/08/09 07:36:31;;;;;;;7.53;3.92;;;;;;;25.75;46.60;93358.13;5090755;28;20048;-79
2022/08/09 07:39:02;;;;;;;5.95;3.92;;;;;;;25.72;47.85;93353.47;5090421;28;20044;-77
2022/08/09 07:41:28;;;;;;;8.07;4.15;;;;;;;25.45;48.79;93359.63;5090289;28;20048;-77
2022/08/09 07:43:55;;;;;;;7.55;4.55;;;;;;;25.66;49.17;93361.78;5090706;28;20043;-77
2022/08/09 07:46:22;;;;;;;7.15;4.40;;;;;;;25.78;48.40;93356.75;5103329;28;20047;-77
2022/08/09 07:48:49;;;;;;;9.43;3.75;;;;;;;26.00;46.58;93360.41;5108666;28;20499;-79
2022/08/09 07:51:16;;;;;;;6.38;4.88;;;;;;;25.84;47.02;93362.66;5110666;28;20395;-77
2022/08/09 07:53:43;;;;;;;8.48;4.32;;;;;;;26.28;47.82;93368.91;5102163;28;20048;-76
2022/08/09 07:56:11;;;;;;;6.47;3.38;;;;;;;26.31;45.48;93357.00;5107149;28;20040;-77
2022/08/09 07:58:38;;;;;;;5.80;3.78;;;;;;;26.62;46.28;93364.03;5089547;28;20048;-76
2022/08/09 08:01:05;;;;;;;6.45;3.88;;;;;;;26.89;44.76;93366.72;5091329;28;20090;-77
2022/08/09 08:03:31;;;;;;;5.00;3.63;;;;;;;26.48;44.55;93344.97;5097677;28;20051;-78
2022/08/09 08:05:58;;;;;;;7.28;3.65;;;;;;;26.74;44.27;93367.94;5089087;28;20144;-77
2022/08/09 08:08:25;;;;;;;7.35;3.15;;;;;;;26.18;44.94;93366.53;5089940;28;20118;-78
2022/08/09 08:10:52;;;;;;;8.50;3.70;;;;;;;26.58;45.15;93365.75;5089570;28;20051;-77
2022/08/09 08:13:20;;;;;;;7.90;3.83;;;;;;;26.58;44.23;93339.41;5089969;28;20542;-77
2022/08/09 08:15:47;;;;;;;6.57;3.45;;;;;;;26.90;44.63;93352.44;5090124;28;20048;-77
2022/08/09 08:18:14;;;;;;;6.28;3.63;;;;;;;27.21;42.63;93357.59;5094543;28;20043;-78
2022/08/09 08:20:41;;;;;;;8.00;4.03;;;;;;;26.90;44.04;93347.94;5092941;28;20044;-77
2022/08/09 08:23:07;;;;;;;7.63;3.97;;;;;;;27.15;44.31;93350.94;5088393;28;20048;-76
2022/08/09 08:25:35;;;;;;;5.78;3.38;;;;;;;26.85;42.62;93358.66;5091532;28;20047;-78
2022/08/09 08:28:02;;;;;;;4.55;2.92;;;;;;;26.96;41.04;93348.59;5088750;28;20047;-77
2022/08/09 08:30:31;;;;;;;7.70;3.30;;;;;;;27.27;42.00;93352.16;5096765;28;20552;-77
2022/08/09 08:32:57;;;;;;;4.47;3.08;;;;;;;27.17;41.14;93345.34;5089379;28;20052;-76
2022/08/09 08:35:24;;;;;;;5.40;3.33;;;;;;;27.39;41.43;93347.03;5088818;28;20052;-76
2022/08/09 08:37:51;;;;;;;5.82;2.90;;;;;;;27.55;41.32;93351.81;5094018;28;20160;-76
2022/08/09 08:40:18;;;;;;;6.18;2.90;;;;;;;27.36;41.19;93347.66;5089790;28;20083;-78
2022/08/09 08:42:45;;;;;;;3.83;3.00;;;;;;;27.60;41.11;93343.78;5089233;28;20044;-76
2022/08/09 08:45:12;;;;;;;3.97;2.65;;;;;;;28.05;40.49;93331.22;5103517;28;20044;-76
2022/08/09 08:47:41;;;;;;;4.38;2.58;;;;;;;27.62;38.05;93352.13;5089397;28;20503;-78
2022/08/09 08:50:08;;;;;;;4.28;2.42;;;;;;;27.77;39.18;93348.22;5089373;28;20047;-76
2022/08/09 08:52:35;;;;;;;4.07;2.42;;;;;;;28.12;39.52;93350.75;5089056;28;20496;-76
2022/08/09 08:55:02;;;;;;;5.18;2.55;;;;;;;28.14;39.56;93351.19;5089265;28;20052;-77
2022/08/09 08:57:29;;;;;;;4.57;2.90;;;;;;;28.11;38.42;93343.13;5089417;28;20105;-78
2022/08/09 08:59:56;;;;;;;4.43;2.63;;;;;;;27.87;39.88;93347.13;5095210;28;20052;-77
2022/08/09 09:02:25;;;;;;;4.47;2.22;;;;;;;28.23;38.84;93339.88;5087743;28;20511;-78
2022/08/09 09:04:56;;;;;;;5.18;2.50;;;;;;;27.85;37.85;93339.50;5088814;28;20163;-77
2022/08/09 09:07:24;;;;;;;4.13;2.30;;;;;;;27.86;35.97;93327.09;5089284;28;20495;-77
2022/08/09 09:09:52;;;;;;;3.83;2.10;;;;;;;28.28;35.59;93334.41;5088982;28;20500;-76
2022/08/09 09:12:20;;;;;;;5.97;2.53;;;;;;;28.37;35.33;93337.00;5089189;28;20094;-76
2022/08/09 09:14:49;;;;;;;8.13;2.45;;;;;;;28.17;34.11;93325.25;5089113;28;20093;-76
2022/08/09 09:17:16;;;;;;;3.65;1.60;;;;;;;28.25;30.87;93322.59;5089007;28;20044;-76
2022/08/09 09:19:44;;;;;;;4.15;2.20;;;;;;;28.59;33.49;93335.16;5095146;28;20537;-77
2022/08/09 09:22:14;;;;;;;7.28;2.03;;;;;;;29.11;32.32;93320.03;5089032;28;20044;-78
2022/08/09 09:24:43;;;;;;;4.88;2.00;;;;;;;29.04;32.17;93323.19;5088664;28;20048;-77
2022/08/09 09:27:12;;;;;;;3.03;2.13;;;;;;;28.81;33.84;93324.28;5088564;28;20472;-77
2022/08/09 09:29:40;;;;;;;5.15;1.70;;;;;;;29.05;31.19;93324.72;5089601;28;20044;-77
2022/08/09 09:32:08;;;;;;;3.58;1.48;;;;;;;28.99;30.39;93315.47;5088474;28;20040;-77
2022/08/09 09:34:37;;;;;;;5.20;1.75;;;;;;;29.37;31.25;93284.63;5087967;28;20048;-78
2022/08/09 09:37:07;;;;;;;4.00;1.50;;;;;;;29.74;29.96;93306.69;5089040;28;20051;-78
2022/08/09 09:39:36;;;;;;;2.70;1.42;;;;;;;29.45;30.09;93318.94;5089077;28;20093;-78
2022/08/09 09:42:05;;;;;;;2.90;1.55;;;;;;;29.00;30.09;93320.44;5107494;28;20131;-78
2022/08/09 09:44:34;;;;;;;4.80;1.85;;;;;;;29.72;30.49;93313.41;5109563;28;20063;-78
2022/08/09 09:47:06;;;;;;;2.65;1.23;;;;;;;30.07;28.58;93309.56;5099914;28;20052;-77
2022/08/09 09:49:33;;;;;;;2.28;1.40;;;;;;;29.74;27.54;93282.84;5092808;28;20130;-79
2022/08/09 09:52:03;;;;;;;2.75;1.50;;;;;;;29.15;27.45;93310.38;5093221;28;20056;-77
2022/08/09 09:54:41;;;;;;;3.88;1.20;;;;;;;29.91;28.30;93304.16;5092612;28;20036;-78
2022/08/09 09:57:16;;;;;;;2.15;1.30;;;;;;;29.79;26.82;93291.66;5092957;28;20076;-78
2022/08/09 09:59:44;;;;;;;4.10;1.40;;;;;;;30.45;26.32;93297.84;5092628;28;20060;-78
2022/08/09 10:02:11;;;;;;;2.97;1.20;;;;;;;30.47;26.85;93300.19;5092688;28;20504;-78
2022/08/09 10:04:39;;;;;;;3.65;1.48;;;;;;;30.05;26.02;93264.09;5090220;28;20140;-78
2022/08/09 10:07:06;;;;;;;2.80;1.38;;;;;;;29.66;26.49;93285.59;5089922;28;20044;-78
2022/08/09 10:09:51;;;;;;;2.97;1.55;;;;;;;29.65;26.39;93287.47;5090936;28;20040;-78
2022/08/09 10:12:25;;;;;;;;;;;;;;;29.57;27.00;93293.66;5106119;28;20043;-77
2022/08/09 10:15:02;;;;;;;2.67;1.50;;;;;;;29.70;28.16;93278.53;5092010;28;19919;-77
2022/08/09 10:17:33;;;;;;;3.08;1.70;;;;;;;30.08;29.37;93258.16;5092302;28;20117;-77
2022/08/09 10:20:00;;;;;;;2.20;1.20;;;;;;;30.64;26.63;93289.31;5091732;28;20123;-79
2022/08/09 10:22:34;;;;;;;2.60;1.10;;;;;;;30.36;26.06;93290.03;5092069;28;20463;-77
2022/08/09 10:25:05;;;;;;;2.20;1.15;;;;;;;30.26;25.17;93293.13;5091532;28;20044;-77
2022/08/09 10:27:32;;;;;;;4.55;1.48;;;;;;;30.04;25.53;93279.22;5095947;28;20052;-77
2022/08/09 10:30:04;;;;;;;2.80;1.20;;;;;;;30.02;24.89;93272.72;5093847;28;20055;-77
2022/08/09 10:32:30;;;;;;;1.95;1.00;;;;;;;30.57;24.20;93278.53;5090567;28;20048;-78
2022/08/09 10:34:57;;;;;;;2.45;0.80;;;;;;;31.25;25.96;93264.81;5091068;28;20364;-79
2022/08/09 10:37:24;;;;;;;2.63;1.13;;;;;;;31.90;25.00;93276.31;5091831;28;20081;-78
2022/08/09 10:39:52;;;;;;;5.00;1.20;;;;;;;32.19;25.57;93240.53;5097256;28;20044;-78
2022/08/09 10:42:22;;;;;;;3.42;1.52;;;;;;;32.73;24.93;93267.50;5099718;28;20134;-78
2022/08/09 10:44:54;;;;;;;3.00;1.00;;;;;;;33.04;24.62;93279.13;5100452;28;20623;-81
2022/08/09 10:47:36;;;;;;;2.83;1.45;;;;;;;31.32;24.12;93265.03;5094576;28;20062;-81
2022/08/09 10:50:12;;;;;;;2.03;1.00;;;;;;;31.65;24.92;93263.94;5095134;28;20048;-82
2022/08/09 10:53:04;;;;;;;3.15;1.70;;;;;;;30.66;26.91;93273.09;5093720;28;20062;-81
2022/08/09 10:55:39;;;;;;;2.30;1.20;;;;;;;30.12;28.52;93272.28;5097731;28;20048;-81
2022/08/09 10:58:34;;;;;;;3.13;1.33;;;;;;;30.39;27.68;93262.09;5098643;28;20089;-83
2022/08/09 11:01:06;;;;;;;2.72;1.58;;;;;;;30.91;26.99;93270.41;5101127;28;20503;-80
2022/08/09 11:03:34;;;;;;;7.82;1.88;;;;;;;30.92;27.37;93270.03;5089687;28;20074;-81
2022/08/09 11:06:20;;;;;;;3.15;1.25;;;;;;;31.06;27.77;93274.19;5091620;28;20449;-82
2022/08/09 11:08:48;;;;;;;1.90;1.02;;;;;;;30.67;26.63;93279.94;5092087;28;20052;-76
2022/08/09 11:11:16;;;;;;;3.80;1.20;;;;;;;30.69;26.71;93272.47;5092186;28;20389;-78
2022/08/09 11:13:44;;;;;;;2.03;1.13;;;;;;;30.63;27.63;93271.09;5101977;28;20461;-76
2022/08/09 11:16:35;;;;;;;2.20;0.93;;;;;;;30.59;27.62;93255.09;5091990;28;20044;-77
2022/08/09 11:19:04;;;;;;;2.55;1.17;;;;;;;31.33;26.70;93269.25;5092311;28;20068;-77
2022/08/09 11:21:50;;;;;;;2.28;1.30;;;;;;;31.41;25.91;93264.84;5092225;28;20048;-77
2022/08/09 11:24:17;;;;;;;5.10;1.27;;;;;;;31.31;26.82;93263.47;5092101;28;20081;-77
2022/08/09 11:26:47;;;;;;;4.43;1.70;;;;;;;30.65;26.56;93266.25;5091835;28;20044;-77
2022/08/09 11:29:53;;;;;;;2.20;1.20;;;;;;;30.63;27.39;93257.84;5091997;28;20102;-76
2022/08/09 11:32:54;;;;;;;3.30;1.48;;;;;;;31.68;26.80;93252.66;5071587;28;20080;-76
2022/08/09 11:35:32;;;;;;;2.38;1.17;;;;;;;30.62;26.41;93257.09;5033524;28;20049;-77
2022/08/09 11:38:13;;;;;;;2.80;1.20;;;;;;;30.35;26.78;93258.56;5057512;28;20041;-77
2022/08/09 11:40:40;;;;;;;5.60;1.40;;;;;;;30.32;25.91;93262.69;5064507;28;20056;-77
2022/08/09 11:43:08;;;;;;;3.05;1.20;;;;;;;29.74;27.00;93260.91;5051558;28;20493;-79